sensor_id;sensor_type;location;lat;lon;timestamp;pressure;altitude;pressure_sealevel;temperature;humidity
58947;BME280;44724;52.332;4.978;2022-11-15T00:02:05;100931.47;;;6.01;100.00
58947;BME280;44724;52.332;4.978;2022-11-15T00:04:49;100931.78;;;6.05;100.00
58947;BME280;44724;52.332;4.978;2022-11-15T00:07:33;100927.41;;;6.09;100.00
58947;BME280;44724;52.332;4.978;2022-11-15T00:10:17;100919.44;;;6.07;100.00
58947;BME280;44724;52.332;4.978;2022-11-15T00:13:05;100918.59;;;6.07;100.00
58947;BME280;44724;52.332;4.978;2022-11-15T00:15:49;100924.34;;;6.05;100.00
58947;BME280;44724;52.332;4.978;2022-11-15T00:18:33;100910.94;;;6.09;100.00
58947;BME280;44724;52.332;4.978;2022-11-15T00:21:17;100903.25;;;6.11;100.00
58947;BME280;44724;52.332;4.978;2022-11-15T00:24:01;100903.84;;;6.13;100.00
58947;BME280;44724;52.332;4.978;2022-11-15T00:26:45;100901.94;;;6.14;100.00
58947;BME280;44724;52.332;4.978;2022-11-15T00:29:29;100907.44;;;6.14;100.00
58947;BME280;44724;52.332;4.978;2022-11-15T00:32:13;100908.81;;;6.16;100.00
58947;BME280;44724;52.332;4.978;2022-11-15T00:34:57;100916.53;;;6.19;100.00
58947;BME280;44724;52.332;4.978;2022-11-15T00:37:41;100908.00;;;6.16;100.00
58947;BME280;44724;52.332;4.978;2022-11-15T00:40:25;100912.41;;;6.17;100.00
58947;BME280;44724;52.332;4.978;2022-11-15T00:43:09;100914.00;;;6.13;100.00
58947;BME280;44724;52.332;4.978;2022-11-15T00:45:53;100950.56;;;6.13;100.00
58947;BME280;44724;52.332;4.978;2022-11-15T00:48:37;100929.16;;;6.15;100.00
58947;BME280;44724;52.332;4.978;2022-11-15T00:51:21;100921.47;;;6.17;100.00
58947;BME280;44724;52.332;4.978;2022-11-15T00:54:05;100915.47;;;6.20;100.00
58947;BME280;44724;52.332;4.978;2022-11-15T00:56:49;100902.28;;;6.22;100.00
58947;BME280;44724;52.332;4.978;2022-11-15T00:59:34;100894.06;;;6.22;100.00
58947;BME280;44724;52.332;4.978;2022-11-15T01:02:18;100903.69;;;6.25;100.00
58947;BME280;44724;52.332;4.978;2022-11-15T01:05:02;100903.44;;;6.26;100.00
58947;BME280;44724;52.332;4.978;2022-11-15T01:07:46;100893.00;;;6.28;100.00
58947;BME280;44724;52.332;4.978;2022-11-15T01:10:30;100892.75;;;6.30;100.00
58947;BME280;44724;52.332;4.978;2022-11-15T01:13:14;100888.66;;;6.33;100.00
58947;BME280;44724;52.332;4.978;2022-11-15T01:15:59;100883.75;;;6.35;100.00
58947;BME280;44724;52.332;4.978;2022-11-15T01:18:44;100886.78;;;6.38;100.00
58947;BME280;44724;52.332;4.978;2022-11-15T01:21:28;100866.72;;;6.38;100.00
58947;BME280;44724;52.332;4.978;2022-11-15T01:24:12;100875.81;;;6.38;100.00
58947;BME280;44724;52.332;4.978;2022-11-15T01:26:56;100868.94;;;6.41;100.00
58947;BME280;44724;52.332;4.978;2022-11-15T01:29:40;100870.59;;;6.42;100.00
58947;BME280;44724;52.332;4.978;2022-11-15T01:32:24;100878.34;;;6.45;100.00
58947;BME280;44724;52.332;4.978;2022-11-15T01:35:08;100868.97;;;6.46;100.00
58947;BME280;44724;52.332;4.978;2022-11-15T01:37:51;100864.63;;;6.50;100.00
58947;BME280;44724;52.332;4.978;2022-11-15T01:40:35;100861.59;;;6.52;100.00
58947;BME280;44724;52.332;4.978;2022-11-15T01:46:30;100850.97;;;6.60;100.00
58947;BME280;44724;52.332;4.978;2022-11-15T01:49:18;100849.88;;;6.61;100.00
58947;BME280;44724;52.332;4.978;2022-11-15T01:52:06;100859.25;;;6.65;100.00
58947;BME280;44724;52.332;4.978;2022-11-15T01:57:49;100843.88;;;6.70;100.00
58947;BME280;44724;52.332;4.978;2022-11-15T02:00:34;100855.47;;;6.72;100.00
58947;BME280;44724;52.332;4.978;2022-11-15T02:03:18;100837.34;;;6.76;100.00
58947;BME280;44724;52.332;4.978;2022-11-15T02:06:03;100835.97;;;6.78;100.00
58947;BME280;44724;52.332;4.978;2022-11-15T02:08:49;100829.91;;;6.76;100.00
58947;BME280;44724;52.332;4.978;2022-11-15T02:11:34;100829.38;;;6.79;100.00
58947;BME280;44724;52.332;4.978;2022-11-15T02:14:19;100825.25;;;6.82;100.00
58947;BME280;44724;52.332;4.978;2022-11-15T02:17:33;100820.06;;;6.85;100.00
58947;BME280;44724;52.332;4.978;2022-11-15T02:20:37;100810.47;;;6.88;100.00
58947;BME280;44724;52.332;4.978;2022-11-15T02:30:23;100795.63;;;6.94;100.00
58947;BME280;44724;52.332;4.978;2022-11-15T02:40:10;100783.63;;;7.11;100.00
58947;BME280;44724;52.332;4.978;2022-11-15T02:43:00;100788.88;;;7.17;100.00
58947;BME280;44724;52.332;4.978;2022-11-15T02:46:14;100780.66;;;7.22;100.00
58947;BME280;44724;52.332;4.978;2022-11-15T02:49:00;100785.09;;;7.29;100.00
58947;BME280;44724;52.332;4.978;2022-11-15T02:51:46;100769.94;;;7.31;100.00
58947;BME280;44724;52.332;4.978;2022-11-15T02:54:33;100772.75;;;7.41;100.00
58947;BME280;44724;52.332;4.978;2022-11-15T02:57:18;100766.13;;;7.48;100.00
58947;BME280;44724;52.332;4.978;2022-11-15T03:00:18;100764.53;;;7.57;100.00
58947;BME280;44724;52.332;4.978;2022-11-15T03:06:09;100766.22;;;7.68;100.00
58947;BME280;44724;52.332;4.978;2022-11-15T03:09:07;100761.81;;;7.72;100.00
58947;BME280;44724;52.332;4.978;2022-11-15T03:11:59;100760.72;;;7.78;100.00
58947;BME280;44724;52.332;4.978;2022-11-15T03:14:54;100768.41;;;7.81;100.00
58947;BME280;44724;52.332;4.978;2022-11-15T03:17:47;100765.66;;;7.87;100.00
58947;BME280;44724;52.332;4.978;2022-11-15T03:20:34;100767.34;;;7.93;100.00
58947;BME280;44724;52.332;4.978;2022-11-15T03:23:20;100770.13;;;7.98;100.00
58947;BME280;44724;52.332;4.978;2022-11-15T03:26:08;100766.50;;;8.03;100.00
58947;BME280;44724;52.332;4.978;2022-11-15T03:28:56;100776.72;;;8.07;100.00
58947;BME280;44724;52.332;4.978;2022-11-15T03:31:45;100766.81;;;8.11;100.00
58947;BME280;44724;52.332;4.978;2022-11-15T03:40:45;100755.50;;;8.23;100.00
58947;BME280;44724;52.332;4.978;2022-11-15T03:49:53;100753.84;;;8.37;100.00
58947;BME280;44724;52.332;4.978;2022-11-15T03:52:40;100760.44;;;8.42;100.00
58947;BME280;44724;52.332;4.978;2022-11-15T03:55:24;100758.00;;;8.45;100.00
58947;BME280;44724;52.332;4.978;2022-11-15T03:58:08;100762.41;;;8.51;100.00
58947;BME280;44724;52.332;4.978;2022-11-15T04:00:53;100748.34;;;8.53;100.00
58947;BME280;44724;52.332;4.978;2022-11-15T04:03:37;100751.91;;;8.59;100.00
58947;BME280;44724;52.332;4.978;2022-11-15T04:06:21;100748.63;;;8.62;100.00
58947;BME280;44724;52.332;4.978;2022-11-15T04:09:05;100745.00;;;8.66;100.00
58947;BME280;44724;52.332;4.978;2022-11-15T04:11:48;100748.84;;;8.70;100.00
58947;BME280;44724;52.332;4.978;2022-11-15T04:14:32;100736.72;;;8.77;100.00
58947;BME280;44724;52.332;4.978;2022-11-15T04:17:16;100740.81;;;8.79;100.00
58947;BME280;44724;52.332;4.978;2022-11-15T04:20:00;100736.97;;;8.85;100.00
58947;BME280;44724;52.332;4.978;2022-11-15T04:23:06;100738.31;;;8.88;100.00
58947;BME280;44724;52.332;4.978;2022-11-15T04:26:16;100733.31;;;8.95;100.00
58947;BME280;44724;52.332;4.978;2022-11-15T04:29:00;100739.09;;;8.99;100.00
58947;BME280;44724;52.332;4.978;2022-11-15T04:32:05;100744.06;;;9.02;100.00
58947;BME280;44724;52.332;4.978;2022-11-15T04:34:50;100729.72;;;9.05;100.00
58947;BME280;44724;52.332;4.978;2022-11-15T04:37:34;100728.03;;;9.09;100.00
58947;BME280;44724;52.332;4.978;2022-11-15T04:40:18;100723.06;;;9.11;100.00
58947;BME280;44724;52.332;4.978;2022-11-15T04:43:05;100723.03;;;9.16;100.00
58947;BME280;44724;52.332;4.978;2022-11-15T04:45:48;100717.50;;;9.21;100.00
58947;BME280;44724;52.332;4.978;2022-11-15T04:48:32;100714.72;;;9.26;100.00
58947;BME280;44724;52.332;4.978;2022-11-15T04:51:16;100714.72;;;9.26;100.00
58947;BME280;44724;52.332;4.978;2022-11-15T04:54:01;100708.09;;;9.27;100.00
58947;BME280;44724;52.332;4.978;2022-11-15T04:56:45;100718.53;;;9.30;100.00
58947;BME280;44724;52.332;4.978;2022-11-15T04:59:29;100711.66;;;9.33;100.00
58947;BME280;44724;52.332;4.978;2022-11-15T05:02:12;100705.84;;;9.35;100.00
58947;BME280;44724;52.332;4.978;2022-11-15T05:04:56;100710.22;;;9.36;100.00
58947;BME280;44724;52.332;4.978;2022-11-15T05:07:43;100714.66;;;9.37;100.00
58947;BME280;44724;52.332;4.978;2022-11-15T05:10:30;100715.19;;;9.39;100.00
58947;BME280;44724;52.332;4.978;2022-11-15T05:13:14;100719.31;;;9.41;100.00
58947;BME280;44724;52.332;4.978;2022-11-15T05:15:58;100728.97;;;9.44;100.00
58947;BME280;44724;52.332;4.978;2022-11-15T05:18:42;100724.53;;;9.43;100.00
58947;BME280;44724;52.332;4.978;2022-11-15T05:21:25;100733.63;;;9.48;100.00
58947;BME280;44724;52.332;4.978;2022-11-15T05:24:10;100733.34;;;9.50;100.00
58947;BME280;44724;52.332;4.978;2022-11-15T05:26:54;100735.56;;;9.48;100.00
58947;BME280;44724;52.332;4.978;2022-11-15T05:29:38;100731.97;;;9.52;100.00
58947;BME280;44724;52.332;4.978;2022-11-15T05:32:23;100732.50;;;9.55;100.00
58947;BME280;44724;52.332;4.978;2022-11-15T05:35:12;100745.75;;;9.58;100.00
58947;BME280;44724;52.332;4.978;2022-11-15T05:37:57;100744.09;;;9.57;100.00
58947;BME280;44724;52.332;4.978;2022-11-15T05:40:41;100738.81;;;9.60;100.00
58947;BME280;44724;52.332;4.978;2022-11-15T05:43:26;100747.63;;;9.62;100.00
58947;BME280;44724;52.332;4.978;2022-11-15T05:46:10;100739.59;;;9.66;100.00
58947;BME280;44724;52.332;4.978;2022-11-15T05:48:56;100735.47;;;9.68;100.00
58947;BME280;44724;52.332;4.978;2022-11-15T05:51:42;100737.09;;;9.69;100.00
58947;BME280;44724;52.332;4.978;2022-11-15T05:54:27;100733.22;;;9.70;100.00
58947;BME280;44724;52.332;4.978;2022-11-15T05:57:11;100735.72;;;9.72;100.00
58947;BME280;44724;52.332;4.978;2022-11-15T05:59:55;100734.56;;;9.73;100.00
58947;BME280;44724;52.332;4.978;2022-11-15T06:02:39;100737.88;;;9.75;100.00
58947;BME280;44724;52.332;4.978;2022-11-15T06:05:23;100740.88;;;9.79;100.00
58947;BME280;44724;52.332;4.978;2022-11-15T06:08:07;100734.25;;;9.80;100.00
58947;BME280;44724;52.332;4.978;2022-11-15T06:10:51;100740.88;;;9.79;100.00
58947;BME280;44724;52.332;4.978;2022-11-15T06:13:35;100743.09;;;9.82;100.00
58947;BME280;44724;52.332;4.978;2022-11-15T06:16:19;100751.63;;;9.85;100.00
58947;BME280;44724;52.332;4.978;2022-11-15T06:19:03;100749.16;;;9.84;100.00
58947;BME280;44724;52.332;4.978;2022-11-15T06:21:47;100754.69;;;9.84;100.00
58947;BME280;44724;52.332;4.978;2022-11-15T06:24:30;100758.28;;;9.84;100.00
58947;BME280;44724;52.332;4.978;2022-11-15T06:27:14;100756.63;;;9.83;100.00
58947;BME280;44724;52.332;4.978;2022-11-15T06:29:58;100764.91;;;9.83;100.00
58947;BME280;44724;52.332;4.978;2022-11-15T06:32:42;100775.16;;;9.83;100.00
58947;BME280;44724;52.332;4.978;2022-11-15T06:35:26;100777.88;;;9.88;100.00
58947;BME280;44724;52.332;4.978;2022-11-15T06:38:10;100769.88;;;9.86;100.00
58947;BME280;44724;52.332;4.978;2022-11-15T06:40:54;100774.88;;;9.84;100.00
58947;BME280;44724;52.332;4.978;2022-11-15T06:43:40;100772.66;;;9.81;100.00
58947;BME280;44724;52.332;4.978;2022-11-15T06:46:24;100783.97;;;9.85;100.00
58947;BME280;44724;52.332;4.978;2022-11-15T06:49:08;100781.22;;;9.85;100.00
58947;BME280;44724;52.332;4.978;2022-11-15T06:51:52;100784.78;;;9.85;100.00
58947;BME280;44724;52.332;4.978;2022-11-15T06:54:36;100789.50;;;9.85;100.00
58947;BME280;44724;52.332;4.978;2022-11-15T06:57:20;100788.69;;;9.84;100.00
58947;BME280;44724;52.332;4.978;2022-11-15T07:00:05;100788.97;;;9.83;100.00
58947;BME280;44724;52.332;4.978;2022-11-15T07:02:49;100796.72;;;9.81;100.00
58947;BME280;44724;52.332;4.978;2022-11-15T07:05:33;100785.06;;;9.84;100.00
58947;BME280;44724;52.332;4.978;2022-11-15T07:08:18;100800.81;;;9.88;100.00
58947;BME280;44724;52.332;4.978;2022-11-15T07:11:04;100793.38;;;9.84;100.00
58947;BME280;44724;52.332;4.978;2022-11-15T07:13:48;100783.44;;;9.83;100.00
58947;BME280;44724;52.332;4.978;2022-11-15T07:16:32;100790.63;;;9.79;100.00
58947;BME280;44724;52.332;4.978;2022-11-15T07:19:16;100794.50;;;9.83;100.00
58947;BME280;44724;52.332;4.978;2022-11-15T07:22:00;100799.22;;;9.77;100.00
58947;BME280;44724;52.332;4.978;2022-11-15T07:24:44;100791.75;;;9.78;100.00
58947;BME280;44724;52.332;4.978;2022-11-15T07:27:28;100795.09;;;9.69;100.00
58947;BME280;44724;52.332;4.978;2022-11-15T07:30:12;100795.66;;;9.71;100.00
58947;BME280;44724;52.332;4.978;2022-11-15T07:32:58;100793.75;;;9.67;100.00
58947;BME280;44724;52.332;4.978;2022-11-15T07:35:42;100787.41;;;9.66;100.00
58947;BME280;44724;52.332;4.978;2022-11-15T07:38:26;100794.31;;;9.64;100.00
58947;BME280;44724;52.332;4.978;2022-11-15T07:41:10;100780.78;;;9.62;100.00
58947;BME280;44724;52.332;4.978;2022-11-15T07:43:54;100788.00;;;9.58;100.00
58947;BME280;44724;52.332;4.978;2022-11-15T07:46:38;100796.28;;;9.58;100.00
58947;BME280;44724;52.332;4.978;2022-11-15T07:49:22;100800.69;;;9.59;100.00
58947;BME280;44724;52.332;4.978;2022-11-15T07:52:06;100799.03;;;9.58;100.00
58947;BME280;44724;52.332;4.978;2022-11-15T07:54:49;100798.78;;;9.55;100.00
58947;BME280;44724;52.332;4.978;2022-11-15T07:57:33;100787.22;;;9.52;100.00
58947;BME280;44724;52.332;4.978;2022-11-15T08:00:18;100790.50;;;9.55;100.00
58947;BME280;44724;52.332;4.978;2022-11-15T08:03:10;100775.56;;;9.56;100.00
58947;BME280;44724;52.332;4.978;2022-11-15T08:05:55;100782.75;;;9.57;100.00
58947;BME280;44724;52.332;4.978;2022-11-15T08:08:39;100768.09;;;9.61;100.00
58947;BME280;44724;52.332;4.978;2022-11-15T08:11:23;100776.06;;;9.68;100.00
58947;BME280;44724;52.332;4.978;2022-11-15T08:14:07;100771.91;;;9.70;100.00
58947;BME280;44724;52.332;4.978;2022-11-15T08:16:51;100770.75;;;9.77;100.00
58947;BME280;44724;52.332;4.978;2022-11-15T08:19:39;100772.38;;;9.83;100.00
58947;BME280;44724;52.332;4.978;2022-11-15T08:22:28;100770.44;;;9.83;100.00
58947;BME280;44724;52.332;4.978;2022-11-15T08:25:12;100762.94;;;9.89;100.00
58947;BME280;44724;52.332;4.978;2022-11-15T08:27:59;100750.22;;;9.93;100.00
58947;BME280;44724;52.332;4.978;2022-11-15T08:30:46;100745.75;;;9.97;100.00
58947;BME280;44724;52.332;4.978;2022-11-15T08:33:31;100738.53;;;10.01;100.00
58947;BME280;44724;52.332;4.978;2022-11-15T08:36:16;100739.53;;;10.11;100.00
58947;BME280;44724;52.332;4.978;2022-11-15T08:39:01;100735.41;;;10.13;100.00
58947;BME280;44724;52.332;4.978;2022-11-15T08:41:45;100733.47;;;10.08;100.00
58947;BME280;44724;52.332;4.978;2022-11-15T08:44:28;100721.53;;;10.18;100.00
58947;BME280;44724;52.332;4.978;2022-11-15T08:47:12;100732.59;;;10.18;100.00
58947;BME280;44724;52.332;4.978;2022-11-15T08:49:57;100731.16;;;10.21;100.00
58947;BME280;44724;52.332;4.978;2022-11-15T08:52:41;100734.13;;;10.30;100.00
58947;BME280;44724;52.332;4.978;2022-11-15T08:55:25;100724.50;;;10.27;100.00
58947;BME280;44724;52.332;4.978;2022-11-15T08:58:09;100732.31;;;10.20;100.00
58947;BME280;44724;52.332;4.978;2022-11-15T09:00:53;100719.53;;;10.24;100.00
58947;BME280;44724;52.332;4.978;2022-11-15T09:03:39;100714.53;;;10.31;100.00
58947;BME280;44724;52.332;4.978;2022-11-15T09:06:24;100718.78;;;10.48;100.00
58947;BME280;44724;52.332;4.978;2022-11-15T09:09:08;100713.25;;;10.48;100.00
58947;BME280;44724;52.332;4.978;2022-11-15T09:11:51;100711.25;;;10.53;100.00
58947;BME280;44724;52.332;4.978;2022-11-15T09:14:36;100710.34;;;10.63;100.00
58947;BME280;44724;52.332;4.978;2022-11-15T09:17:20;100707.03;;;10.61;100.00
58947;BME280;44724;52.332;4.978;2022-11-15T09:20:04;100714.56;;;10.79;100.00
58947;BME280;44724;52.332;4.978;2022-11-15T09:22:48;100714.81;;;10.83;100.00
58947;BME280;44724;52.332;4.978;2022-11-15T09:25:32;100716.75;;;10.82;100.00
58947;BME280;44724;52.332;4.978;2022-11-15T09:28:18;100707.72;;;10.96;100.00
58947;BME280;44724;52.332;4.978;2022-11-15T09:31:04;100709.28;;;11.07;100.00
58947;BME280;44724;52.332;4.978;2022-11-15T09:33:49;100700.75;;;11.22;100.00
58947;BME280;44724;52.332;4.978;2022-11-15T09:36:33;100694.53;;;11.31;100.00
58947;BME280;44724;52.332;4.978;2022-11-15T09:39:16;100692.00;;;11.34;100.00
58947;BME280;44724;52.332;4.978;2022-11-15T09:42:25;100694.31;;;11.27;100.00
58947;BME280;44724;52.332;4.978;2022-11-15T09:45:34;100695.88;;;11.33;100.00
58947;BME280;44724;52.332;4.978;2022-11-15T09:48:48;100699.66;;;11.43;100.00
58947;BME280;44724;52.332;4.978;2022-11-15T09:51:39;100699.19;;;11.54;100.00
58947;BME280;44724;52.332;4.978;2022-11-15T09:54:34;100702.41;;;11.61;100.00
58947;BME280;44724;52.332;4.978;2022-11-15T10:00:21;100699.19;;;11.54;100.00
58947;BME280;44724;52.332;4.978;2022-11-15T10:03:06;100697.19;;;11.41;100.00
58947;BME280;44724;52.332;4.978;2022-11-15T10:05:40;100694.56;;;11.50;100.00
58947;BME280;44724;52.332;4.978;2022-11-15T10:10:39;100693.03;;;11.38;100.00
58947;BME280;44724;52.332;4.978;2022-11-15T10:13:22;100692.09;;;11.48;100.00
58947;BME280;44724;52.332;4.978;2022-11-15T10:15:50;100686.53;;;11.48;100.00
58947;BME280;44724;52.332;4.978;2022-11-15T10:18:35;100681.38;;;11.41;100.00
58947;BME280;44724;52.332;4.978;2022-11-15T10:21:16;100672.84;;;11.38;100.00
58947;BME280;44724;52.332;4.978;2022-11-15T10:23:42;100681.28;;;11.28;100.00
58947;BME280;44724;52.332;4.978;2022-11-15T10:26:11;100673.19;;;11.31;100.00
58947;BME280;44724;52.332;4.978;2022-11-15T10:28:38;100664.84;;;11.17;100.00
58947;BME280;44724;52.332;4.978;2022-11-15T10:31:21;100666.31;;;11.29;100.00
58947;BME280;44724;52.332;4.978;2022-11-15T10:33:48;100658.31;;;11.27;100.00
58947;BME280;44724;52.332;4.978;2022-11-15T10:44:11;100628.38;;;11.48;100.00
58947;BME280;44724;52.332;4.978;2022-11-15T10:46:41;100620.06;;;11.48;100.00
58947;BME280;44724;52.332;4.978;2022-11-15T10:49:21;100618.84;;;11.54;100.00
58947;BME280;44724;52.332;4.978;2022-11-15T10:54:45;100614.78;;;11.66;100.00
58947;BME280;44724;52.332;4.978;2022-11-15T10:57:18;100607.00;;;11.68;100.00
58947;BME280;44724;52.332;4.978;2022-11-15T10:59:55;100610.88;;;11.67;100.00
58947;BME280;44724;52.332;4.978;2022-11-15T11:04:57;100590.19;;;11.78;100.00
58947;BME280;44724;52.332;4.978;2022-11-15T11:07:26;100585.94;;;12.00;100.00
58947;BME280;44724;52.332;4.978;2022-11-15T11:10:05;100577.50;;;11.91;100.00
58947;BME280;44724;52.332;4.978;2022-11-15T11:12:39;100578.56;;;12.09;100.00
58947;BME280;44724;52.332;4.978;2022-11-15T11:15:11;100584.91;;;12.09;100.00
58947;BME280;44724;52.332;4.978;2022-11-15T11:18:07;100576.81;;;12.13;100.00
58947;BME280;44724;52.332;4.978;2022-11-15T11:20:53;100583.47;;;11.98;100.00
58947;BME280;44724;52.332;4.978;2022-11-15T11:23:51;100568.44;;;11.85;100.00
58947;BME280;44724;52.332;4.978;2022-11-15T11:32:03;100582.69;;;11.78;100.00
58947;BME280;44724;52.332;4.978;2022-11-15T11:37:37;100578.69;;;11.71;100.00
58947;BME280;44724;52.332;4.978;2022-11-15T11:43:08;100567.25;;;11.58;100.00
58947;BME280;44724;52.332;4.978;2022-11-15T11:48:12;100554.75;;;11.75;100.00
58947;BME280;44724;52.332;4.978;2022-11-15T11:50:40;100542.84;;;11.88;100.00
58947;BME280;44724;52.332;4.978;2022-11-15T11:53:30;100536.66;;;11.96;100.00
58947;BME280;44724;52.332;4.978;2022-11-15T11:56:01;100521.97;;;12.10;100.00
58947;BME280;44724;52.332;4.978;2022-11-15T11:58:40;100517.97;;;12.16;100.00
58947;BME280;44724;52.332;4.978;2022-11-15T12:01:27;100511.06;;;12.27;100.00
58947;BME280;44724;52.332;4.978;2022-11-15T12:04:04;100498.84;;;12.14;100.00
58947;BME280;44724;52.332;4.978;2022-11-15T12:06:42;100498.34;;;11.98;100.00
58947;BME280;44724;52.332;4.978;2022-11-15T12:09:16;100489.91;;;12.04;100.00
58947;BME280;44724;52.332;4.978;2022-11-15T12:11:52;100493.94;;;11.97;100.00
58947;BME280;44724;52.332;4.978;2022-11-15T12:14:27;100483.25;;;12.05;100.00
58947;BME280;44724;52.332;4.978;2022-11-15T12:16:54;100482.31;;;12.23;100.00
58947;BME280;44724;52.332;4.978;2022-11-15T12:19:19;100481.91;;;12.16;100.00
58947;BME280;44724;52.332;4.978;2022-11-15T12:21:56;100471.91;;;12.29;100.00
58947;BME280;44724;52.332;4.978;2022-11-15T12:24:32;100465.78;;;12.18;100.00
58947;BME280;44724;52.332;4.978;2022-11-15T12:27:05;100463.50;;;12.34;100.00
58947;BME280;44724;52.332;4.978;2022-11-15T12:29:41;100460.22;;;12.32;100.00
58947;BME280;44724;52.332;4.978;2022-11-15T12:32:23;100458.34;;;12.27;100.00
58947;BME280;44724;52.332;4.978;2022-11-15T12:34:50;100455.06;;;12.25;100.00
58947;BME280;44724;52.332;4.978;2022-11-15T12:40:20;100453.09;;;12.40;100.00
58947;BME280;44724;52.332;4.978;2022-11-15T12:43:02;100445.03;;;12.29;100.00
58947;BME280;44724;52.332;4.978;2022-11-15T12:45:37;100444.69;;;12.31;100.00
58947;BME280;44724;52.332;4.978;2022-11-15T12:58:46;100410.47;;;12.35;100.00
58947;BME280;44724;52.332;4.978;2022-11-15T13:07:01;100392.53;;;12.55;100.00
58947;BME280;44724;52.332;4.978;2022-11-15T13:11:54;100384.03;;;12.74;100.00
58947;BME280;44724;52.332;4.978;2022-11-15T13:14:42;100382.75;;;12.81;100.00
58947;BME280;44724;52.332;4.978;2022-11-15T13:17:27;100381.94;;;12.80;100.00
58947;BME280;44724;52.332;4.978;2022-11-15T13:27:47;100378.56;;;12.47;100.00
58947;BME280;44724;52.332;4.978;2022-11-15T13:30:18;100358.84;;;12.48;100.00
58947;BME280;44724;52.332;4.978;2022-11-15T13:32:44;100354.38;;;12.39;100.00
58947;BME280;44724;52.332;4.978;2022-11-15T13:35:17;100357.50;;;12.23;100.00
58947;BME280;44724;52.332;4.978;2022-11-15T13:37:46;100356.09;;;12.12;100.00
58947;BME280;44724;52.332;4.978;2022-11-15T13:40:33;100347.13;;;12.15;100.00
58947;BME280;44724;52.332;4.978;2022-11-15T13:42:59;100348.78;;;12.16;100.00
58947;BME280;44724;52.332;4.978;2022-11-15T13:45:25;100339.84;;;12.19;100.00
58947;BME280;44724;52.332;4.978;2022-11-15T13:47:57;100347.66;;;12.17;100.00
58947;BME280;44724;52.332;4.978;2022-11-15T13:50:32;100331.25;;;12.07;100.00
58947;BME280;44724;52.332;4.978;2022-11-15T13:53:01;100331.97;;;11.98;100.00
58947;BME280;44724;52.332;4.978;2022-11-15T13:55:29;100333.31;;;12.01;100.00
58947;BME280;44724;52.332;4.978;2022-11-15T13:58:01;100327.19;;;11.90;100.00
58947;BME280;44724;52.332;4.978;2022-11-15T14:00:39;100330.66;;;11.82;100.00
58947;BME280;44724;52.332;4.978;2022-11-15T14:03:26;100324.19;;;11.87;100.00
58947;BME280;44724;52.332;4.978;2022-11-15T14:08:34;100315.69;;;11.69;100.00
58947;BME280;44724;52.332;4.978;2022-11-15T14:11:15;100310.16;;;11.69;100.00
58947;BME280;44724;52.332;4.978;2022-11-15T14:14:02;100309.03;;;11.56;100.00
58947;BME280;44724;52.332;4.978;2022-11-15T14:16:34;100313.34;;;11.49;100.00
58947;BME280;44724;52.332;4.978;2022-11-15T14:19:00;100298.88;;;11.52;100.00
58947;BME280;44724;52.332;4.978;2022-11-15T14:21:26;100309.75;;;11.48;100.00
58947;BME280;44724;52.332;4.978;2022-11-15T14:23:51;100301.25;;;11.45;100.00
58947;BME280;44724;52.332;4.978;2022-11-15T14:26:34;100301.66;;;11.38;100.00
58947;BME280;44724;52.332;4.978;2022-11-15T14:29:36;100287.81;;;11.38;100.00
58947;BME280;44724;52.332;4.978;2022-11-15T14:32:22;100288.00;;;11.41;100.00
58947;BME280;44724;52.332;4.978;2022-11-15T14:34:53;100284.94;;;11.43;100.00
58947;BME280;44724;52.332;4.978;2022-11-15T14:37:25;100280.19;;;11.44;100.00
58947;BME280;44724;52.332;4.978;2022-11-15T14:39:52;100271.19;;;11.38;100.00
58947;BME280;44724;52.332;4.978;2022-11-15T14:42:18;100274.97;;;11.42;100.00
58947;BME280;44724;52.332;4.978;2022-11-15T14:44:44;100270.56;;;11.41;100.00
58947;BME280;44724;52.332;4.978;2022-11-15T14:47:09;100258.44;;;11.37;100.00
58947;BME280;44724;52.332;4.978;2022-11-15T14:49:35;100254.78;;;11.41;100.00
58947;BME280;44724;52.332;4.978;2022-11-15T14:52:07;100244.00;;;11.40;100.00
58947;BME280;44724;52.332;4.978;2022-11-15T14:54:33;100250.69;;;11.39;100.00
58947;BME280;44724;52.332;4.978;2022-11-15T14:56:58;100244.50;;;11.42;100.00
58947;BME280;44724;52.332;4.978;2022-11-15T14:59:24;100237.34;;;11.41;100.00
58947;BME280;44724;52.332;4.978;2022-11-15T15:01:49;100236.00;;;11.38;100.00
58947;BME280;44724;52.332;4.978;2022-11-15T15:04:14;100234.38;;;11.37;100.00
58947;BME280;44724;52.332;4.978;2022-11-15T15:06:40;100230.06;;;11.31;100.00
58947;BME280;44724;52.332;4.978;2022-11-15T15:09:08;100225.56;;;11.35;100.00
58947;BME280;44724;52.332;4.978;2022-11-15T15:11:33;100221.75;;;11.31;100.00
58947;BME280;44724;52.332;4.978;2022-11-15T15:13:59;100209.84;;;11.31;100.00
58947;BME280;44724;52.332;4.978;2022-11-15T15:16:26;100202.25;;;11.22;100.00
58947;BME280;44724;52.332;4.978;2022-11-15T15:18:52;100204.63;;;11.29;100.00
58947;BME280;44724;52.332;4.978;2022-11-15T15:21:25;100199.19;;;11.24;100.00
58947;BME280;44724;52.332;4.978;2022-11-15T15:23:52;100198.88;;;11.26;100.00
58947;BME280;44724;52.332;4.978;2022-11-15T15:26:22;100198.19;;;11.20;100.00
58947;BME280;44724;52.332;4.978;2022-11-15T15:28:48;100187.09;;;11.20;100.00
58947;BME280;44724;52.332;4.978;2022-11-15T15:31:14;100183.41;;;11.25;100.00
58947;BME280;44724;52.332;4.978;2022-11-15T15:33:40;100180.75;;;11.19;100.00
58947;BME280;44724;52.332;4.978;2022-11-15T15:36:11;100179.00;;;11.23;100.00
58947;BME280;44724;52.332;4.978;2022-11-15T15:38:37;100178.28;;;11.18;100.00
58947;BME280;44724;52.332;4.978;2022-11-15T15:41:09;100169.19;;;11.17;100.00